createdAt,value
2023-09-20T00:00:25.843Z,100.00
2023-09-20T00:02:55.297Z,100.00
2023-09-20T00:05:24.231Z,100.00
2023-09-20T00:07:56.274Z,100.00
2023-09-20T00:10:25.364Z,100.00
2023-09-20T00:12:55.315Z,100.00
2023-09-20T00:15:26.366Z,100.00
2023-09-20T00:17:59.204Z,100.00
2023-09-20T00:20:27.991Z,100.00
2023-09-20T00:23:00.163Z,100.00
2023-09-20T00:25:28.945Z,100.00
2023-09-20T00:27:58.124Z,100.00
2023-09-20T00:30:28.788Z,100.00
2023-09-20T00:33:03.162Z,100.00
2023-09-20T00:35:31.976Z,100.00
2023-09-20T00:38:00.939Z,100.00
2023-09-20T00:40:30.326Z,100.00
2023-09-20T00:43:00.285Z,100.00
2023-09-20T00:45:31.236Z,100.00
2023-09-20T00:48:01.022Z,100.00
2023-09-20T00:50:32.855Z,100.00
2023-09-20T00:53:02.275Z,100.00
2023-09-20T00:55:33.129Z,100.00
2023-09-20T00:58:05.356Z,100.00
2023-09-20T01:00:37.967Z,100.00
2023-09-20T01:03:07.750Z,100.00
2023-09-20T01:05:38.407Z,100.00
2023-09-20T01:08:08.853Z,100.00
2023-09-20T01:10:41.955Z,100.00
2023-09-20T01:13:12.528Z,100.00
2023-09-20T01:15:42.958Z,100.00
2023-09-20T01:18:11.990Z,100.00
2023-09-20T01:20:42.497Z,100.00
2023-09-20T01:23:13.078Z,100.00
2023-09-20T01:25:42.644Z,100.00
2023-09-20T01:28:12.765Z,100.00
2023-09-20T01:30:51.713Z,100.00
2023-09-20T01:33:20.701Z,100.00
2023-09-20T01:35:49.620Z,100.00
2023-09-20T01:38:20.120Z,100.00
2023-09-20T01:40:49.183Z,100.00
2023-09-20T01:43:18.092Z,100.00
2023-09-20T01:45:46.993Z,100.00
2023-09-20T01:48:16.750Z,100.00
2023-09-20T01:50:45.699Z,100.00
2023-09-20T01:53:18.038Z,100.00
2023-09-20T01:55:48.793Z,100.00
2023-09-20T01:58:20.056Z,100.00
2023-09-20T02:00:52.044Z,100.00
2023-09-20T02:03:21.729Z,100.00
2023-09-20T02:05:53.419Z,100.00
2023-09-20T02:08:23.547Z,100.00
2023-09-20T02:10:55.589Z,100.00
2023-09-20T02:13:24.881Z,100.00
2023-09-20T02:15:55.411Z,100.00
2023-09-20T02:18:24.882Z,100.00
2023-09-20T02:20:53.369Z,100.00
2023-09-20T02:23:29.205Z,100.00
2023-09-20T02:26:00.240Z,100.00
2023-09-20T02:28:28.949Z,100.00
2023-09-20T02:30:57.514Z,100.00
2023-09-20T02:33:27.942Z,100.00
2023-09-20T02:35:56.881Z,100.00
2023-09-20T02:38:29.814Z,100.00
2023-09-20T02:41:03.079Z,100.00
2023-09-20T02:43:33.023Z,100.00
2023-09-20T02:46:06.881Z,100.00
2023-09-20T02:48:36.945Z,100.00
2023-09-20T02:51:06.925Z,100.00
2023-09-20T02:53:37.292Z,100.00
2023-09-20T02:56:09.682Z,100.00
2023-09-20T02:58:39.670Z,100.00
2023-09-20T03:01:12.082Z,100.00
2023-09-20T03:03:42.164Z,100.00
2023-09-20T03:06:12.228Z,100.00
2023-09-20T03:08:46.296Z,100.00
2023-09-20T03:11:23.477Z,100.00
2023-09-20T03:13:52.187Z,100.00
2023-09-20T03:16:21.641Z,100.00
2023-09-20T03:18:54.168Z,100.00
2023-09-20T03:21:24.713Z,100.00
2023-09-20T03:23:53.281Z,100.00
2023-09-20T03:26:24.173Z,100.00
2023-09-20T03:28:58.500Z,100.00
2023-09-20T03:31:28.148Z,100.00
2023-09-20T03:33:57.468Z,100.00
2023-09-20T03:36:26.848Z,100.00
2023-09-20T03:38:59.492Z,100.00
2023-09-20T03:41:29.978Z,100.00
2023-09-20T03:43:59.055Z,100.00
2023-09-20T03:46:27.804Z,100.00
2023-09-20T03:48:56.744Z,100.00
2023-09-20T03:51:25.560Z,100.00
2023-09-20T03:53:54.594Z,100.00
2023-09-20T03:56:24.456Z,100.00
2023-09-20T03:58:54.814Z,100.00
2023-09-20T04:01:29.608Z,100.00
2023-09-20T04:04:00.517Z,100.00
2023-09-20T04:06:31.384Z,100.00
2023-09-20T04:08:59.941Z,100.00
2023-09-20T04:11:29.566Z,100.00
2023-09-20T04:14:02.032Z,100.00
2023-09-20T04:16:31.810Z,100.00
2023-09-20T04:19:01.249Z,100.00
2023-09-20T04:21:30.227Z,100.00
2023-09-20T04:24:00.386Z,100.00
2023-09-20T04:26:32.045Z,100.00
2023-09-20T04:29:02.448Z,100.00
2023-09-20T04:31:31.836Z,100.00
2023-09-20T04:34:00.966Z,100.00
2023-09-20T04:36:30.039Z,100.00
2023-09-20T04:38:58.589Z,100.00
2023-09-20T04:41:27.649Z,100.00
2023-09-20T04:43:56.385Z,100.00
2023-09-20T04:46:28.959Z,100.00
2023-09-20T04:48:57.774Z,100.00
2023-09-20T04:51:27.260Z,100.00
2023-09-20T04:53:56.494Z,100.00
2023-09-20T04:56:29.715Z,100.00
2023-09-20T04:58:58.890Z,100.00
2023-09-20T05:01:33.001Z,100.00
2023-09-20T05:04:02.589Z,100.00
2023-09-20T05:06:31.527Z,100.00
2023-09-20T05:09:00.211Z,100.00
2023-09-20T05:11:30.442Z,100.00
2023-09-20T05:13:59.166Z,100.00
2023-09-20T05:16:29.093Z,100.00
2023-09-20T05:18:57.668Z,100.00
2023-09-20T05:21:26.197Z,100.00
2023-09-20T05:23:54.641Z,100.00
2023-09-20T05:26:24.395Z,100.00
2023-09-20T05:28:53.009Z,100.00
2023-09-20T05:31:24.510Z,100.00
2023-09-20T05:33:56.750Z,100.00
2023-09-20T05:36:28.636Z,100.00
2023-09-20T05:38:57.574Z,100.00
2023-09-20T05:41:29.671Z,100.00
2023-09-20T05:43:58.687Z,100.00
2023-09-20T05:46:27.645Z,100.00
2023-09-20T05:48:58.481Z,100.00
2023-09-20T05:51:27.870Z,100.00
2023-09-20T05:53:56.300Z,100.00
2023-09-20T05:56:26.328Z,100.00
2023-09-20T05:58:55.203Z,100.00
2023-09-20T06:01:25.733Z,100.00
2023-09-20T06:03:57.886Z,100.00
2023-09-20T06:06:28.051Z,100.00
2023-09-20T06:08:57.630Z,100.00
2023-09-20T06:11:26.646Z,100.00
2023-09-20T06:13:55.184Z,100.00
2023-09-20T06:16:24.441Z,100.00
2023-09-20T06:19:05.025Z,100.00
2023-09-20T06:21:39.667Z,100.00
2023-09-20T06:24:11.481Z,100.00
2023-09-20T06:26:41.788Z,100.00
2023-09-20T06:29:11.197Z,100.00
2023-09-20T06:31:39.648Z,100.00
2023-09-20T06:34:08.763Z,100.00
2023-09-20T06:36:38.867Z,100.00
2023-09-20T06:39:09.551Z,100.00
2023-09-20T06:41:39.316Z,100.00
2023-09-20T06:44:08.577Z,100.00
2023-09-20T06:46:37.313Z,100.00
2023-09-20T06:49:06.360Z,100.00
2023-09-20T06:51:35.885Z,100.00
2023-09-20T06:54:06.114Z,100.00
2023-09-20T06:56:36.367Z,100.00
2023-09-20T06:59:05.029Z,100.00
2023-09-20T07:01:33.850Z,100.00
2023-09-20T07:04:03.985Z,100.00
2023-09-20T07:06:33.385Z,100.00
2023-09-20T07:09:02.189Z,100.00
2023-09-20T07:11:33.504Z,100.00
2023-09-20T07:14:07.311Z,100.00
2023-09-20T07:16:37.686Z,100.00
2023-09-20T07:19:06.918Z,100.00
2023-09-20T07:21:38.656Z,100.00
2023-09-20T07:24:08.003Z,100.00
2023-09-20T07:26:39.981Z,100.00
2023-09-20T07:29:09.951Z,100.00
2023-09-20T07:31:38.854Z,100.00
2023-09-20T07:34:08.222Z,100.00
2023-09-20T07:36:38.866Z,100.00
2023-09-20T07:39:09.983Z,100.00
2023-09-20T07:41:40.256Z,100.00
2023-09-20T07:44:10.042Z,100.00
2023-09-20T07:46:39.996Z,100.00
2023-09-20T07:49:11.647Z,100.00
2023-09-20T07:51:41.157Z,100.00
2023-09-20T07:54:11.679Z,100.00
2023-09-20T07:56:44.555Z,100.00
2023-09-20T07:59:15.069Z,98.63
2023-09-20T08:01:45.212Z,98.42
2023-09-20T08:04:19.339Z,100.00
2023-09-20T08:06:49.405Z,100.00
2023-09-20T08:09:18.872Z,100.00
2023-09-20T08:11:49.350Z,99.68
2023-09-20T08:14:18.064Z,100.00
2023-09-20T08:16:59.138Z,99.88
2023-09-20T08:19:32.656Z,100.00
2023-09-20T08:22:01.025Z,100.00
2023-09-20T08:24:47.119Z,100.00
2023-09-20T08:27:34.741Z,98.49
2023-09-20T08:30:21.533Z,97.78
2023-09-20T08:33:08.217Z,96.38
2023-09-20T08:35:54.305Z,94.64
2023-09-20T08:38:40.919Z,91.49
2023-09-20T08:41:29.266Z,84.07
2023-09-20T08:44:17.762Z,82.49
2023-09-20T08:47:04.840Z,81.59
2023-09-20T08:49:51.488Z,78.59
2023-09-20T08:52:40.827Z,73.59
2023-09-20T08:55:27.658Z,72.60
2023-09-20T08:58:14.864Z,70.09
2023-09-20T09:00:48.163Z,72.19
2023-09-20T09:03:17.870Z,70.54
2023-09-20T09:05:47.248Z,67.09
2023-09-20T09:08:18.423Z,62.10
2023-09-20T09:10:49.208Z,63.00
2023-09-20T09:13:18.294Z,58.87
2023-09-20T09:15:49.398Z,59.91
2023-09-20T09:18:21.988Z,56.87
2023-09-20T09:20:52.849Z,51.65
2023-09-20T09:23:36.940Z,44.80
2023-09-20T09:26:06.807Z,41.90
2023-09-20T09:28:35.720Z,41.48
2023-09-20T09:31:06.552Z,44.51
2023-09-20T09:33:37.054Z,47.39
2023-09-20T09:36:09.329Z,47.04
2023-09-20T09:38:41.465Z,41.54
2023-09-20T09:41:11.902Z,37.95
2023-09-20T09:43:40.908Z,36.35
2023-09-20T09:46:11.954Z,36.05
2023-09-20T09:48:45.208Z,35.69
2023-09-20T09:51:15.056Z,36.64
2023-09-20T09:53:44.184Z,39.44
2023-09-20T09:56:19.956Z,43.66
2023-09-20T09:58:48.819Z,46.65
2023-09-20T10:01:20.685Z,43.01
2023-09-20T10:03:52.486Z,38.97
2023-09-20T10:06:24.363Z,37.46
2023-09-20T10:08:55.840Z,35.76
2023-09-20T10:11:26.562Z,34.80
2023-09-20T10:13:56.237Z,33.41
2023-09-20T10:16:27.314Z,32.54
2023-09-20T10:19:01.983Z,32.37
2023-09-20T10:21:35.289Z,31.23
2023-09-20T10:24:10.125Z,30.32
2023-09-20T10:26:42.569Z,30.59
2023-09-20T10:29:27.606Z,29.58
2023-09-20T10:31:58.894Z,31.14
2023-09-20T10:34:28.900Z,31.65
2023-09-20T10:36:59.192Z,31.35
2023-09-20T10:39:30.993Z,30.58
2023-09-20T10:42:09.357Z,28.98
2023-09-20T10:44:40.295Z,29.68
2023-09-20T10:47:14.853Z,29.87
2023-09-20T10:49:46.939Z,29.78
2023-09-20T10:52:15.910Z,30.03
2023-09-20T10:54:47.725Z,29.83
2023-09-20T10:57:24.041Z,29.52
2023-09-20T10:59:54.956Z,30.33
2023-09-20T11:02:27.443Z,29.83
2023-09-20T11:04:58.530Z,29.73
2023-09-20T11:07:27.659Z,31.02
2023-09-20T11:09:57.301Z,31.10
2023-09-20T11:12:26.638Z,30.10
2023-09-20T11:14:56.233Z,31.70
2023-09-20T11:17:27.053Z,35.46
2023-09-20T11:19:55.962Z,36.94
2023-09-20T11:22:26.673Z,38.86
2023-09-20T11:24:58.110Z,41.07
2023-09-20T11:27:27.950Z,41.45
2023-09-20T11:29:57.436Z,40.94
2023-09-20T11:32:29.011Z,41.81
2023-09-20T11:34:58.167Z,43.70
2023-09-20T11:37:26.981Z,42.48
2023-09-20T11:39:56.469Z,43.81
2023-09-20T11:42:27.139Z,43.62
2023-09-20T11:45:11.683Z,43.73
2023-09-20T11:47:50.090Z,44.10
2023-09-20T11:50:19.099Z,44.32
2023-09-20T11:52:48.835Z,44.24
2023-09-20T11:55:18.117Z,45.18
2023-09-20T11:57:47.959Z,42.69
2023-09-20T12:00:20.221Z,43.32
2023-09-20T12:02:52.491Z,42.60
2023-09-20T12:05:23.486Z,42.09
2023-09-20T12:07:59.767Z,41.16
2023-09-20T12:10:30.093Z,42.54
2023-09-20T12:12:59.282Z,42.55
2023-09-20T12:15:28.247Z,44.23
2023-09-20T12:17:58.540Z,45.38
2023-09-20T12:20:29.172Z,43.95
2023-09-20T12:23:02.824Z,43.22
2023-09-20T12:25:32.374Z,42.80
2023-09-20T12:28:01.555Z,41.78
2023-09-20T12:30:30.449Z,42.71
2023-09-20T12:33:03.714Z,42.57
2023-09-20T12:35:34.625Z,43.32
2023-09-20T12:38:04.180Z,44.34
2023-09-20T12:40:34.101Z,43.90
2023-09-20T12:43:03.127Z,44.46
2023-09-20T12:45:31.885Z,44.09
2023-09-20T12:48:02.004Z,45.07
2023-09-20T12:50:35.613Z,43.68
2023-09-20T12:53:04.903Z,43.43
2023-09-20T12:55:36.945Z,43.49
2023-09-20T12:58:06.352Z,44.67
2023-09-20T13:00:46.201Z,44.34
2023-09-20T13:03:17.677Z,44.24
2023-09-20T13:05:47.733Z,44.73
2023-09-20T13:08:20.145Z,43.84
2023-09-20T13:10:54.727Z,43.48
2023-09-20T13:13:27.600Z,43.19
2023-09-20T13:15:57.004Z,43.98
2023-09-20T13:18:27.677Z,44.55
2023-09-20T13:20:59.774Z,43.89
2023-09-20T13:23:32.545Z,45.01
2023-09-20T13:26:04.911Z,45.64
2023-09-20T13:28:33.572Z,44.77
2023-09-20T13:31:04.385Z,46.45
2023-09-20T13:33:34.833Z,44.72
2023-09-20T13:36:03.934Z,44.91
2023-09-20T13:38:34.485Z,45.65
2023-09-20T13:41:03.904Z,46.79
2023-09-20T13:43:33.568Z,46.48
2023-09-20T13:46:02.296Z,45.74
2023-09-20T13:48:31.573Z,46.18
2023-09-20T13:51:03.142Z,45.80
2023-09-20T13:53:32.114Z,46.02
2023-09-20T13:56:04.224Z,46.52
2023-09-20T13:58:34.905Z,45.42
2023-09-20T14:01:06.995Z,44.96
2023-09-20T14:03:38.590Z,45.63
2023-09-20T14:06:10.086Z,45.30
2023-09-20T14:08:39.160Z,45.41
2023-09-20T14:11:10.013Z,45.64
2023-09-20T14:13:44.899Z,44.46
2023-09-20T14:16:16.014Z,44.75
2023-09-20T14:18:46.121Z,45.18
2023-09-20T14:21:17.461Z,44.88
2023-09-20T14:23:47.084Z,44.33
2023-09-20T14:26:16.512Z,44.70
2023-09-20T14:28:46.097Z,43.21
2023-09-20T14:31:18.612Z,43.73
2023-09-20T14:33:47.765Z,43.48
2023-09-20T14:36:19.726Z,42.83
2023-09-20T14:38:48.367Z,42.69
2023-09-20T14:41:17.194Z,42.39
2023-09-20T14:43:46.455Z,43.84
2023-09-20T14:46:15.657Z,43.03
2023-09-20T14:48:44.527Z,43.79
2023-09-20T14:51:16.820Z,44.06
2023-09-20T14:53:48.116Z,44.22
2023-09-20T14:56:17.808Z,43.03
2023-09-20T14:58:46.155Z,42.90
2023-09-20T15:01:16.726Z,43.72
2023-09-20T15:03:45.712Z,43.69
2023-09-20T15:06:19.395Z,42.56
2023-09-20T15:08:50.466Z,42.85
2023-09-20T15:11:19.321Z,44.76
2023-09-20T15:13:49.551Z,44.67
2023-09-20T15:16:18.638Z,45.09
2023-09-20T15:18:47.802Z,44.48
2023-09-20T15:21:17.943Z,44.50
2023-09-20T15:23:51.016Z,43.92
2023-09-20T15:26:22.931Z,43.67
2023-09-20T15:28:51.778Z,42.52
2023-09-20T15:31:22.979Z,41.73
2023-09-20T15:33:55.305Z,40.03
2023-09-20T15:36:24.697Z,39.04
2023-09-20T15:38:57.615Z,39.79
2023-09-20T15:41:29.215Z,39.31
2023-09-20T15:43:58.216Z,40.45
2023-09-20T15:46:27.415Z,39.98
2023-09-20T15:48:56.944Z,40.69
2023-09-20T15:51:26.564Z,41.80
2023-09-20T15:53:59.058Z,41.95
2023-09-20T15:56:27.868Z,44.60
2023-09-20T15:58:59.025Z,46.11
2023-09-20T16:01:29.318Z,47.14
2023-09-20T16:03:58.776Z,47.09
2023-09-20T16:06:28.731Z,46.28
2023-09-20T16:09:00.219Z,47.58
2023-09-20T16:11:29.971Z,49.78
2023-09-20T16:13:59.021Z,49.99
2023-09-20T16:16:27.907Z,51.15
2023-09-20T16:18:59.792Z,52.53
2023-09-20T16:21:28.869Z,55.60
2023-09-20T16:23:58.913Z,59.23
2023-09-20T16:26:27.980Z,63.12
2023-09-20T16:28:57.703Z,67.36
2023-09-20T16:31:26.953Z,69.83
2023-09-20T16:33:56.128Z,73.22
2023-09-20T16:36:27.996Z,75.81
2023-09-20T16:38:57.844Z,79.20
2023-09-20T16:41:28.341Z,80.58
2023-09-20T16:43:57.189Z,83.21
2023-09-20T16:46:25.919Z,84.04
2023-09-20T16:48:57.613Z,85.28
2023-09-20T16:51:26.426Z,86.09
2023-09-20T16:53:55.609Z,87.02
2023-09-20T16:56:24.361Z,87.61
2023-09-20T16:58:55.120Z,88.39
2023-09-20T17:01:24.883Z,89.34
2023-09-20T17:03:53.937Z,89.81
2023-09-20T17:06:22.760Z,91.20
2023-09-20T17:08:51.810Z,92.26
2023-09-20T17:11:20.846Z,93.86
2023-09-20T17:13:52.904Z,95.43
2023-09-20T17:16:23.477Z,96.38
2023-09-20T17:18:52.961Z,97.44
2023-09-20T17:21:22.105Z,97.37
2023-09-20T17:23:51.354Z,98.12
2023-09-20T17:26:26.180Z,98.59
2023-09-20T17:28:56.510Z,99.24
2023-09-20T17:31:27.841Z,99.14
2023-09-20T17:33:57.182Z,100.00
2023-09-20T17:36:26.118Z,100.00
2023-09-20T17:38:55.043Z,100.00
2023-09-20T17:41:24.991Z,100.00
2023-09-20T17:43:54.906Z,100.00
2023-09-20T17:46:23.950Z,100.00
2023-09-20T17:48:54.167Z,100.00
2023-09-20T17:51:25.136Z,100.00
2023-09-20T17:53:54.017Z,100.00
2023-09-20T17:56:23.723Z,100.00
2023-09-20T17:58:52.490Z,100.00
2023-09-20T18:01:21.951Z,100.00
2023-09-20T18:03:51.187Z,100.00
2023-09-20T18:06:21.922Z,100.00
2023-09-20T18:08:52.014Z,100.00
2023-09-20T18:11:23.633Z,100.00
2023-09-20T18:13:52.730Z,100.00
2023-09-20T18:16:21.673Z,100.00
2023-09-20T18:18:51.271Z,100.00
2023-09-20T18:21:22.449Z,100.00
2023-09-20T18:23:51.692Z,100.00
2023-09-20T18:26:21.362Z,100.00
2023-09-20T18:28:51.203Z,100.00
2023-09-20T18:31:20.046Z,100.00
2023-09-20T18:33:49.726Z,100.00
2023-09-20T18:36:20.199Z,100.00
2023-09-20T18:38:50.971Z,100.00
2023-09-20T18:41:20.090Z,100.00
2023-09-20T18:43:50.303Z,100.00
2023-09-20T18:46:19.267Z,100.00
2023-09-20T18:48:50.848Z,100.00
2023-09-20T18:51:19.746Z,100.00
2023-09-20T18:53:50.436Z,100.00
2023-09-20T18:56:22.494Z,100.00
2023-09-20T18:58:51.689Z,100.00
2023-09-20T19:01:22.686Z,100.00
2023-09-20T19:03:52.252Z,100.00
2023-09-20T19:06:22.326Z,100.00
2023-09-20T19:08:54.741Z,100.00
2023-09-20T19:11:24.824Z,100.00
2023-09-20T19:13:53.952Z,100.00
2023-09-20T19:16:24.389Z,100.00
2023-09-20T19:18:59.904Z,100.00
2023-09-20T19:21:32.455Z,100.00
2023-09-20T19:24:06.783Z,100.00
2023-09-20T19:26:36.072Z,100.00
2023-09-20T19:29:05.172Z,100.00
2023-09-20T19:31:33.699Z,100.00
2023-09-20T19:34:05.580Z,100.00
2023-09-20T19:36:34.823Z,100.00
2023-09-20T19:39:06.587Z,100.00
2023-09-20T19:41:35.391Z,100.00
2023-09-20T19:44:04.755Z,100.00
2023-09-20T19:46:33.313Z,100.00
2023-09-20T19:49:02.710Z,100.00
2023-09-20T19:51:31.313Z,100.00
2023-09-20T19:54:01.498Z,100.00
2023-09-20T19:56:38.354Z,100.00
2023-09-20T19:59:07.092Z,100.00
2023-09-20T20:01:39.106Z,100.00
2023-09-20T20:04:10.045Z,100.00
2023-09-20T20:06:38.799Z,100.00
2023-09-20T20:09:08.492Z,100.00
2023-09-20T20:11:39.574Z,100.00
2023-09-20T20:14:09.783Z,100.00
2023-09-20T20:16:39.290Z,100.00
2023-09-20T20:19:11.453Z,100.00
2023-09-20T20:21:40.222Z,100.00
2023-09-20T20:24:10.495Z,100.00
2023-09-20T20:26:41.134Z,100.00
2023-09-20T20:29:11.335Z,100.00
2023-09-20T20:31:42.144Z,100.00
2023-09-20T20:34:11.123Z,100.00
2023-09-20T20:36:41.473Z,100.00
2023-09-20T20:39:12.898Z,100.00
2023-09-20T20:41:43.252Z,100.00
2023-09-20T20:44:12.410Z,100.00
2023-09-20T20:46:43.290Z,100.00
2023-09-20T20:49:12.732Z,100.00
2023-09-20T20:51:44.908Z,100.00
2023-09-20T20:54:13.744Z,100.00
2023-09-20T20:56:45.807Z,100.00
2023-09-20T20:59:21.842Z,100.00
2023-09-20T21:01:52.464Z,100.00
2023-09-20T21:04:21.986Z,100.00
2023-09-20T21:06:50.495Z,100.00
2023-09-20T21:09:19.149Z,100.00
2023-09-20T21:11:49.681Z,100.00
2023-09-20T21:14:18.964Z,100.00
2023-09-20T21:16:50.368Z,100.00
2023-09-20T21:19:19.640Z,100.00
2023-09-20T21:21:49.306Z,100.00
2023-09-20T21:24:18.359Z,100.00
2023-09-20T21:26:48.634Z,100.00
2023-09-20T21:29:17.126Z,100.00
2023-09-20T21:31:46.428Z,100.00
2023-09-20T21:34:15.051Z,100.00
2023-09-20T21:36:43.550Z,100.00
2023-09-20T21:39:13.173Z,100.00
2023-09-20T21:41:41.946Z,100.00
2023-09-20T21:44:12.238Z,100.00
2023-09-20T21:46:41.064Z,100.00
2023-09-20T21:49:10.572Z,100.00
2023-09-20T21:51:44.059Z,100.00
2023-09-20T21:54:13.769Z,100.00
2023-09-20T21:56:42.917Z,100.00
2023-09-20T21:59:14.619Z,100.00
2023-09-20T22:01:44.190Z,100.00
2023-09-20T22:04:13.173Z,100.00
2023-09-20T22:06:42.358Z,100.00
2023-09-20T22:09:12.611Z,100.00
2023-09-20T22:11:42.004Z,100.00
2023-09-20T22:14:11.321Z,100.00
2023-09-20T22:16:42.560Z,100.00
2023-09-20T22:19:16.697Z,100.00
2023-09-20T22:21:49.461Z,100.00
2023-09-20T22:24:18.788Z,100.00
2023-09-20T22:26:48.379Z,100.00
2023-09-20T22:29:18.184Z,100.00
2023-09-20T22:31:48.195Z,100.00
2023-09-20T22:34:18.002Z,100.00
2023-09-20T22:36:47.383Z,100.00
2023-09-20T22:39:19.291Z,100.00
2023-09-20T22:41:48.517Z,100.00
2023-09-20T22:44:17.243Z,100.00
2023-09-20T22:46:47.241Z,100.00
2023-09-20T22:49:22.867Z,100.00
2023-09-20T22:51:51.642Z,100.00
2023-09-20T22:54:23.220Z,100.00
2023-09-20T22:56:52.640Z,100.00
2023-09-20T22:59:27.342Z,100.00
2023-09-20T23:01:56.105Z,100.00
2023-09-20T23:04:26.689Z,100.00
2023-09-20T23:06:55.675Z,100.00
2023-09-20T23:09:24.562Z,100.00
2023-09-20T23:11:54.615Z,100.00
2023-09-20T23:14:24.019Z,100.00
2023-09-20T23:16:54.370Z,100.00
2023-09-20T23:19:23.249Z,100.00
2023-09-20T23:21:53.748Z,100.00
2023-09-20T23:24:23.008Z,100.00
2023-09-20T23:26:52.468Z,100.00
2023-09-20T23:29:21.751Z,100.00
2023-09-20T23:31:51.025Z,100.00
2023-09-20T23:34:22.265Z,100.00
2023-09-20T23:36:57.430Z,100.00
2023-09-20T23:39:31.162Z,100.00
2023-09-20T23:42:00.383Z,100.00
2023-09-20T23:44:29.112Z,100.00
2023-09-20T23:47:00.376Z,100.00
2023-09-20T23:49:31.251Z,100.00
2023-09-20T23:52:02.561Z,100.00
2023-09-20T23:54:31.263Z,100.00
2023-09-20T23:57:00.240Z,100.00
2023-09-20T23:59:29.044Z,100.00
